Time;durP1;ratioP1;P1;durP2;ratioP2;P2;SDS_P1;SDS_P2;PMS_P1;PMS_P2;Temp;Humidity;BMP_temperature;BMP_pressure;BME280_temperature;BME280_humidity;BME280_pressure;Samples;Min_cycle;Max_cycle;Signal;HPM_P1;HPM_P2
2023/07/08 00:00:52;;;;;;;4.70;3.20;;;;;;;19.98;58.61;101524.66;5024677;28;20029;-80
2023/07/08 00:03:18;;;;;;;5.63;3.60;;;;;;;19.96;58.83;101524.81;5028092;28;20029;-80
2023/07/08 00:05:45;;;;;;;7.97;3.47;;;;;;;19.91;59.21;101521.78;5029543;28;20071;-80
2023/07/08 00:08:15;;;;;;;5.82;3.70;;;;;;;19.86;59.92;101517.91;5029288;28;20478;-80
2023/07/08 00:10:44;;;;;;;7.53;3.65;;;;;;;19.80;59.86;101519.38;5044565;28;20021;-80
2023/07/08 00:13:10;;;;;;;5.93;3.70;;;;;;;19.76;59.91;101527.88;5029269;28;20079;-79
2023/07/08 00:15:36;;;;;;;5.93;3.58;;;;;;;19.69;60.58;101511.63;5029817;28;20060;-80
2023/07/08 00:18:18;;;;;;;4.80;3.45;;;;;;;19.64;60.51;101513.94;5026349;28;20432;-80
2023/07/08 00:20:48;;;;;;;8.13;3.87;;;;;;;19.57;61.03;101512.88;5029467;28;21354;-80
2023/07/08 00:23:14;;;;;;;5.18;3.72;;;;;;;19.54;61.55;101510.50;5028657;28;20330;-79
2023/07/08 00:25:40;;;;;;;6.30;3.60;;;;;;;19.47;61.38;101512.94;5029503;28;20037;-80
2023/07/08 00:28:12;;;;;;;7.28;3.85;;;;;;;19.38;61.99;101506.69;5028742;28;20029;-79
2023/07/08 00:30:37;;;;;;;8.48;3.55;;;;;;;19.35;62.29;101514.19;5024862;28;20393;-80
2023/07/08 00:33:03;;;;;;;9.00;3.95;;;;;;;19.31;62.70;101513.66;5029526;28;20092;-79
2023/07/08 00:35:35;;;;;;;10.60;3.83;;;;;;;19.27;62.64;101514.94;5027322;28;20071;-80
2023/07/08 00:38:12;;;;;;;7.10;3.83;;;;;;;19.20;63.00;101511.19;5020982;28;20549;-80
2023/07/08 00:40:48;;;;;;;9.60;3.80;;;;;;;19.18;63.33;101518.50;5020572;28;20376;-80
2023/07/08 00:43:14;;;;;;;5.90;3.70;;;;;;;19.14;63.49;101503.81;5014661;28;20481;-80
2023/07/08 00:45:49;;;;;;;9.07;4.15;;;;;;;19.10;64.02;101502.44;5027844;28;20064;-80
2023/07/08 00:48:23;;;;;;;8.02;4.63;;;;;;;19.07;63.54;101505.41;5028607;28;20576;-80
2023/07/08 00:50:50;;;;;;;7.18;3.90;;;;;;;19.03;63.82;101510.22;5029285;28;20052;-80
2023/07/08 00:53:36;;;;;;;5.15;3.92;;;;;;;19.03;63.41;101494.22;5022015;28;20033;-79
2023/07/08 00:56:06;;;;;;;7.28;4.57;;;;;;;18.93;64.69;101500.63;5039403;28;20041;-80
2023/07/08 00:58:39;;;;;;;7.28;4.28;;;;;;;18.91;64.79;101502.59;5028271;28;20057;-79
2023/07/08 01:01:06;;;;;;;6.65;4.40;;;;;;;18.89;64.74;101496.59;5028744;28;20036;-79
2023/07/08 01:03:34;;;;;;;5.63;3.97;;;;;;;18.82;65.26;101495.50;5058782;28;20024;-80
2023/07/08 01:06:00;;;;;;;6.93;3.83;;;;;;;18.79;65.32;101505.47;5028162;28;20029;-80
2023/07/08 01:08:28;;;;;;;7.93;3.72;;;;;;;18.78;65.33;101503.78;5028427;28;20377;-80
2023/07/08 01:11:01;;;;;;;5.45;4.13;;;;;;;18.72;65.65;101495.56;5021808;28;20021;-80
2023/07/08 01:13:30;;;;;;;5.40;4.10;;;;;;;18.69;65.86;101495.84;5028289;28;20075;-80
2023/07/08 01:15:56;;;;;;;9.52;4.07;;;;;;;18.64;65.98;101496.31;5028787;28;20029;-79
2023/07/08 01:18:22;;;;;;;4.90;3.85;;;;;;;18.61;66.14;101499.25;5028626;28;20025;-80
2023/07/08 01:20:47;;;;;;;7.22;4.47;;;;;;;18.61;66.15;101498.41;5027904;28;20151;-80
2023/07/08 01:23:13;;;;;;;5.18;4.30;;;;;;;18.56;66.19;101496.19;5027837;28;20100;-79
2023/07/08 01:25:44;;;;;;;10.43;3.90;;;;;;;18.56;66.35;101501.53;5028701;28;20036;-80
2023/07/08 01:28:10;;;;;;;7.20;3.75;;;;;;;18.57;66.41;101495.22;5021338;28;20112;-80
2023/07/08 01:30:37;;;;;;;8.70;4.30;;;;;;;18.54;66.53;101495.50;5014290;28;20032;-80
2023/07/08 01:33:12;;;;;;;11.18;4.40;;;;;;;18.47;66.72;101491.75;5028016;28;20091;-80
2023/07/08 01:35:37;;;;;;;6.43;4.68;;;;;;;18.42;66.80;101486.06;5030307;28;20025;-80
2023/07/08 01:38:05;;;;;;;7.50;4.22;;;;;;;18.40;67.01;101491.50;5033196;28;20512;-80
2023/07/08 01:40:34;;;;;;;9.13;4.30;;;;;;;18.40;67.08;101493.31;5032477;28;20025;-79
2023/07/08 01:43:01;;;;;;;5.43;4.28;;;;;;;18.33;67.22;101494.91;5029432;28;20048;-80
2023/07/08 01:45:36;;;;;;;7.28;4.50;;;;;;;18.28;67.47;101489.19;5025804;28;20434;-80
2023/07/08 01:48:08;;;;;;;8.68;4.13;;;;;;;18.25;68.03;101500.13;5017313;28;20046;-79
2023/07/08 01:50:38;;;;;;;6.38;4.18;;;;;;;18.21;67.94;101496.09;5032163;28;20030;-80
2023/07/08 01:53:19;;;;;;;8.18;4.40;;;;;;;18.22;67.99;101497.78;5032078;28;20033;-80
2023/07/08 01:55:45;;;;;;;6.13;4.55;;;;;;;18.18;68.27;101483.91;5048635;28;20102;-80
2023/07/08 01:58:10;;;;;;;5.70;4.75;;;;;;;18.17;68.11;101475.09;5052112;28;20099;-80
2023/07/08 02:00:35;;;;;;;10.10;4.10;;;;;;;18.16;68.00;101468.06;5037192;28;20025;-80
2023/07/08 02:03:01;;;;;;;6.75;4.30;;;;;;;18.17;68.04;101472.41;5028130;28;20029;-80
2023/07/08 02:05:26;;;;;;;10.48;4.13;;;;;;;18.15;67.66;101471.72;5030846;28;20128;-80
2023/07/08 02:07:51;;;;;;;4.57;3.92;;;;;;;18.14;67.73;101470.06;5031258;28;20018;-79
2023/07/08 02:10:17;;;;;;;5.20;4.05;;;;;;;18.15;67.76;101465.56;5029794;28;20030;-80
2023/07/08 02:12:42;;;;;;;5.20;4.00;;;;;;;18.09;68.01;101461.66;5031109;28;20024;-80
2023/07/08 02:15:09;;;;;;;5.20;4.05;;;;;;;18.07;68.10;101460.97;5030545;28;20116;-80
2023/07/08 02:17:35;;;;;;;6.93;3.95;;;;;;;18.05;68.68;101460.28;5027337;28;20536;-80
2023/07/08 02:20:00;;;;;;;13.88;4.60;;;;;;;18.02;68.48;101455.25;5030812;28;20108;-79
2023/07/08 02:22:26;;;;;;;8.75;4.38;;;;;;;17.98;68.85;101456.50;5025012;28;20104;-80
2023/07/08 02:24:51;;;;;;;8.50;4.05;;;;;;;17.99;69.09;101444.03;5019068;28;20025;-80
2023/07/08 02:27:17;;;;;;;6.97;4.38;;;;;;;17.95;69.20;101447.97;5027924;28;20022;-80
2023/07/08 02:29:42;;;;;;;6.45;4.10;;;;;;;17.93;69.34;101449.94;5031358;28;20063;-80
2023/07/08 02:32:09;;;;;;;5.47;4.30;;;;;;;17.85;69.61;101446.19;5030754;28;20505;-80
2023/07/08 02:34:36;;;;;;;7.95;4.10;;;;;;;17.81;69.85;101439.50;5032033;28;20030;-80
2023/07/08 02:37:01;;;;;;;9.00;4.15;;;;;;;17.77;70.20;101434.59;5030590;28;20083;-80
2023/07/08 02:39:27;;;;;;;6.40;4.47;;;;;;;17.72;70.51;101428.88;5023330;28;20037;-80
2023/07/08 02:41:52;;;;;;;8.43;4.40;;;;;;;17.72;70.65;101434.22;5031270;28;20018;-80
2023/07/08 02:44:17;;;;;;;5.28;4.30;;;;;;;17.68;70.67;101430.16;5019487;28;20073;-80
2023/07/08 02:46:43;;;;;;;5.97;4.43;;;;;;;17.64;71.00;101434.06;5028844;28;20033;-80
2023/07/08 02:49:08;;;;;;;7.95;4.68;;;;;;;17.61;71.08;101431.66;5031803;28;20029;-80
2023/07/08 02:51:34;;;;;;;7.28;4.90;;;;;;;17.57;71.07;101428.47;5030575;28;20025;-80
2023/07/08 02:53:59;;;;;;;5.45;4.50;;;;;;;17.54;71.54;101437.56;5025302;28;20022;-80
2023/07/08 02:56:26;;;;;;;6.53;4.40;;;;;;;17.52;71.60;101436.03;5043907;28;20021;-80
2023/07/08 02:58:52;;;;;;;7.88;4.75;;;;;;;17.52;71.17;101447.53;5034376;28;20064;-80
2023/07/08 03:01:17;;;;;;;9.23;4.95;;;;;;;17.49;71.52;101447.81;5031092;28;20053;-80
2023/07/08 03:03:46;;;;;;;8.35;4.85;;;;;;;17.49;71.55;101454.94;5029751;28;20025;-80
2023/07/08 03:06:12;;;;;;;7.07;4.68;;;;;;;17.47;71.85;101451.59;5030671;28;20082;-79
2023/07/08 03:08:38;;;;;;;8.82;4.50;;;;;;;17.42;71.91;101449.38;5031349;28;20478;-79
2023/07/08 03:11:05;;;;;;;7.90;4.72;;;;;;;17.41;72.12;101445.03;5022967;28;20105;-80
2023/07/08 03:13:32;;;;;;;6.72;4.60;;;;;;;17.38;72.38;101447.97;5030348;28;20033;-80
2023/07/08 03:16:01;;;;;;;6.20;4.60;;;;;;;17.40;72.31;101451.34;5026916;28;20025;-80
2023/07/08 03:18:28;;;;;;;7.47;4.85;;;;;;;17.36;72.33;101449.94;5025276;28;20488;-80
2023/07/08 03:20:55;;;;;;;7.38;4.55;;;;;;;17.36;72.60;101451.75;5029348;28;20400;-80
2023/07/08 03:23:23;;;;;;;9.13;4.78;;;;;;;17.31;72.66;101462.84;5030019;28;20041;-80
2023/07/08 03:25:49;;;;;;;7.72;5.13;;;;;;;17.28;72.95;101454.31;5029633;28;20032;-80
2023/07/08 03:28:14;;;;;;;8.23;4.75;;;;;;;17.26;73.26;101445.63;5028429;28;20393;-80
2023/07/08 03:30:44;;;;;;;8.55;4.80;;;;;;;17.26;73.20;101440.31;5028708;28;20147;-79
2023/07/08 03:33:10;;;;;;;9.00;4.55;;;;;;;17.33;72.97;101442.25;5022130;28;20096;-80
2023/07/08 03:35:36;;;;;;;8.13;5.07;;;;;;;17.32;72.99;101447.72;5025072;28;20528;-80
2023/07/08 03:38:02;;;;;;;8.32;5.00;;;;;;;17.29;72.98;101462.13;5029303;28;20108;-79
2023/07/08 03:40:28;;;;;;;11.68;4.72;;;;;;;17.27;73.05;101453.47;5029403;28;20104;-80
2023/07/08 03:42:54;;;;;;;5.82;4.82;;;;;;;17.31;73.04;101464.66;5029575;28;20477;-80
2023/07/08 03:45:19;;;;;;;10.52;5.03;;;;;;;17.26;73.10;101462.44;5029613;28;20049;-79
2023/07/08 03:47:45;;;;;;;6.88;5.07;;;;;;;17.26;73.19;101464.25;5029462;28;20030;-79
2023/07/08 03:50:23;;;;;;;10.15;5.22;;;;;;;17.25;72.96;101465.22;5026267;28;20033;-79
2023/07/08 03:52:51;;;;;;;8.90;5.00;;;;;;;17.21;73.57;101467.31;5029954;28;20385;-79
2023/07/08 03:55:17;;;;;;;9.75;5.57;;;;;;;17.20;73.68;101476.25;5033446;28;20025;-79
2023/07/08 03:57:42;;;;;;;8.70;5.15;;;;;;;17.16;73.72;101478.38;5050441;28;20032;-80
2023/07/08 04:00:14;;;;;;;6.88;5.20;;;;;;;17.16;73.94;101474.88;5050631;28;20021;-80
2023/07/08 04:02:41;;;;;;;9.18;5.35;;;;;;;17.14;74.08;101468.84;5040896;28;20025;-80
2023/07/08 04:05:17;;;;;;;10.68;5.07;;;;;;;17.13;74.47;101478.66;5031134;28;20029;-80
2023/07/08 04:07:42;;;;;;;9.00;4.72;;;;;;;17.27;74.04;101474.75;5028238;28;20493;-80
2023/07/08 04:10:09;;;;;;;9.98;5.22;;;;;;;17.72;72.79;101471.47;5025482;28;20108;-80
2023/07/08 04:12:35;;;;;;;6.40;4.75;;;;;;;18.36;70.40;101479.47;5030415;28;20029;-80
2023/07/08 04:15:01;;;;;;;10.00;5.10;;;;;;;18.61;68.80;101477.94;5029838;28;20021;-80
2023/07/08 04:17:26;;;;;;;5.63;4.50;;;;;;;19.40;66.08;101472.69;5029696;28;20021;-80
2023/07/08 04:19:52;;;;;;;7.05;4.55;;;;;;;19.66;64.42;101475.41;5030182;28;20385;-80
2023/07/08 04:22:17;;;;;;;6.72;4.78;;;;;;;20.35;62.24;101470.88;5029406;28;20025;-80
2023/07/08 04:24:43;;;;;;;6.20;4.47;;;;;;;20.58;60.70;101471.16;5024924;28;20022;-80
2023/07/08 04:27:18;;;;;;;7.30;4.45;;;;;;;20.67;60.82;101474.69;5018031;28;20033;-80
2023/07/08 04:29:44;;;;;;;8.35;4.55;;;;;;;19.97;62.06;101470.38;5028696;28;20052;-80
2023/07/08 04:32:10;;;;;;;6.38;4.63;;;;;;;19.45;63.53;101466.88;5029371;28;20026;-80
2023/07/08 04:34:35;;;;;;;6.88;4.68;;;;;;;19.08;65.06;101464.41;5029844;28;20100;-80
2023/07/08 04:37:01;;;;;;;5.70;4.43;;;;;;;18.90;66.36;101466.25;5027578;28;20056;-80
2023/07/08 04:39:27;;;;;;;6.57;4.30;;;;;;;18.74;66.80;101472.25;5027899;28;20025;-81
2023/07/08 04:41:52;;;;;;;9.75;4.88;;;;;;;18.56;67.69;101474.88;5020596;28;20022;-81
2023/07/08 04:44:18;;;;;;;6.63;4.55;;;;;;;18.36;68.84;101467.97;5025067;28;20053;-80
2023/07/08 04:46:53;;;;;;;8.45;4.65;;;;;;;18.25;69.16;101466.34;5028776;28;20041;-79
2023/07/08 04:49:20;;;;;;;5.70;4.90;;;;;;;18.21;69.83;101464.13;5029050;28;20105;-80
2023/07/08 04:51:45;;;;;;;7.15;5.22;;;;;;;18.19;70.14;101476.75;5028349;28;20033;-80
2023/07/08 04:54:11;;;;;;;6.68;4.80;;;;;;;18.12;70.27;101466.69;5030639;28;20026;-80
2023/07/08 04:56:43;;;;;;;10.10;5.20;;;;;;;18.12;70.66;101466.69;5033735;28;20091;-80
2023/07/08 04:59:11;;;;;;;8.25;4.90;;;;;;;18.13;70.54;101465.72;5019505;28;20121;-79
2023/07/08 05:01:36;;;;;;;9.05;4.72;;;;;;;18.14;70.66;101467.38;5009671;28;20030;-80
2023/07/08 05:04:04;;;;;;;11.93;5.10;;;;;;;18.17;70.98;101472.41;5009421;28;20049;-80
2023/07/08 05:06:30;;;;;;;7.00;4.93;;;;;;;18.19;70.72;101466.09;5024599;28;20371;-79
2023/07/08 05:08:55;;;;;;;7.60;4.60;;;;;;;18.21;70.97;101466.78;5028937;28;20052;-79
2023/07/08 05:11:21;;;;;;;5.60;5.10;;;;;;;18.15;70.66;101470.88;5028631;28;20037;-80
2023/07/08 05:13:46;;;;;;;7.05;5.20;;;;;;;18.12;70.94;101471.19;5026554;28;20044;-80
2023/07/08 05:16:11;;;;;;;5.50;5.00;;;;;;;18.09;72.10;101469.66;5024414;28;20087;-81
2023/07/08 05:18:37;;;;;;;8.75;5.30;;;;;;;18.11;71.86;101465.03;5028348;28;20063;-80
2023/07/08 05:21:03;;;;;;;6.95;4.93;;;;;;;18.08;72.03;101467.97;5029705;28;20013;-80
2023/07/08 05:23:28;;;;;;;6.18;4.90;;;;;;;18.07;72.30;101473.44;5029562;28;20393;-80
2023/07/08 05:25:54;;;;;;;7.63;5.13;;;;;;;18.14;72.20;101470.06;5027446;28;20090;-80
2023/07/08 05:28:21;;;;;;;8.10;4.88;;;;;;;18.15;72.88;101473.56;5028903;28;20055;-80
2023/07/08 05:30:47;;;;;;;10.15;5.35;;;;;;;18.20;72.90;101470.44;5026458;28;20405;-80
2023/07/08 05:33:13;;;;;;;8.45;5.22;;;;;;;18.28;72.32;101460.72;5007799;28;20018;-80
2023/07/08 05:35:38;;;;;;;9.75;5.40;;;;;;;18.34;72.29;101464.59;5025460;28;20041;-80
2023/07/08 05:38:03;;;;;;;6.90;5.20;;;;;;;18.38;71.98;101461.50;5029065;28;20451;-80
2023/07/08 05:40:29;;;;;;;8.25;5.88;;;;;;;18.46;72.02;101455.44;5027500;28;20053;-80
2023/07/08 05:42:54;;;;;;;8.80;5.47;;;;;;;18.57;72.00;101459.72;5029071;28;20056;-80
2023/07/08 05:45:19;;;;;;;7.55;5.55;;;;;;;18.69;70.93;101461.19;5027748;28;20541;-79
2023/07/08 05:47:45;;;;;;;8.40;5.63;;;;;;;18.78;71.23;101452.28;5024933;28;20034;-79
2023/07/08 05:50:10;;;;;;;8.23;5.95;;;;;;;18.89;70.55;101451.25;5028391;28;20501;-80
2023/07/08 05:52:35;;;;;;;8.88;5.65;;;;;;;19.02;70.65;101459.69;5029120;28;20032;-79
2023/07/08 05:55:01;;;;;;;6.68;5.60;;;;;;;19.11;69.88;101450.75;5041228;28;20089;-79
2023/07/08 05:57:26;;;;;;;8.57;5.80;;;;;;;19.21;69.44;101462.22;5028217;28;20124;-79
2023/07/08 05:59:52;;;;;;;11.25;5.82;;;;;;;19.31;69.25;101457.59;5028045;28;20370;-79
2023/07/08 06:02:21;;;;;;;7.50;6.13;;;;;;;19.42;68.67;101468.03;5027212;28;20034;-79
2023/07/08 06:04:47;;;;;;;9.93;5.35;;;;;;;19.52;68.02;101456.41;5024241;28;20075;-79
2023/07/08 06:07:12;;;;;;;8.13;5.40;;;;;;;19.62;67.34;101462.53;5007248;28;20038;-80
2023/07/08 06:09:37;;;;;;;7.63;5.80;;;;;;;19.70;66.23;101455.41;5008557;28;20029;-80
2023/07/08 06:12:03;;;;;;;10.50;5.63;;;;;;;19.82;66.57;101453.28;5022836;28;20025;-79
2023/07/08 06:14:29;;;;;;;10.05;5.63;;;;;;;19.87;65.06;101471.50;5028207;28;20159;-79
2023/07/08 06:16:55;;;;;;;9.90;5.63;;;;;;;19.95;64.83;101467.03;5026659;28;20025;-79
2023/07/08 06:19:20;;;;;;;6.82;4.95;;;;;;;20.05;63.61;101468.78;5032290;28;20099;-79
2023/07/08 06:21:46;;;;;;;7.63;5.18;;;;;;;20.14;63.23;101467.81;5024190;28;20025;-79
2023/07/08 06:24:11;;;;;;;8.40;5.63;;;;;;;20.22;63.34;101468.69;5031329;28;20041;-80
2023/07/08 06:26:37;;;;;;;9.02;5.50;;;;;;;20.31;63.11;101464.19;5032618;28;20624;-79
2023/07/08 06:29:03;;;;;;;9.95;5.60;;;;;;;20.39;63.97;101469.56;5031402;28;20115;-79
2023/07/08 06:31:29;;;;;;;8.32;5.55;;;;;;;20.49;63.59;101466.81;5032047;28;20752;-79
2023/07/08 06:33:54;;;;;;;9.93;6.15;;;;;;;20.57;62.84;101470.34;5031805;28;20021;-79
2023/07/08 06:36:19;;;;;;;7.82;5.68;;;;;;;20.64;63.11;101475.88;5011846;28;20463;-78
2023/07/08 06:38:45;;;;;;;10.13;5.60;;;;;;;20.69;62.42;101470.84;5011898;28;20018;-81
2023/07/08 06:41:10;;;;;;;10.25;6.13;;;;;;;20.79;61.80;101468.03;5030965;28;20029;-79
2023/07/08 06:43:35;;;;;;;8.27;5.82;;;;;;;20.87;61.70;101471.56;5031628;28;20474;-81
2023/07/08 06:46:01;;;;;;;9.13;5.70;;;;;;;20.92;61.93;101457.69;5031574;28;20902;-79
2023/07/08 06:48:26;;;;;;;10.93;5.68;;;;;;;21.02;61.86;101466.38;5031818;28;20112;-80
2023/07/08 06:50:52;;;;;;;12.23;6.20;;;;;;;21.09;60.58;101470.06;5031287;28;20022;-80
2023/07/08 06:53:17;;;;;;;9.00;6.10;;;;;;;21.18;60.20;101471.75;5030409;28;20128;-70
2023/07/08 06:55:46;;;;;;;10.60;5.95;;;;;;;21.30;60.23;101460.75;5044766;28;20037;-71
2023/07/08 06:58:12;;;;;;;11.15;5.80;;;;;;;21.44;59.49;101460.06;5026856;28;20517;-71
2023/07/08 07:00:37;;;;;;;8.70;5.78;;;;;;;21.55;58.42;101455.19;5031081;28;20025;-71
2023/07/08 07:03:03;;;;;;;12.38;6.25;;;;;;;21.68;58.33;101443.94;5031532;28;20477;-79
2023/07/08 07:05:28;;;;;;;8.35;5.85;;;;;;;21.81;58.33;101460.31;5030167;28;20037;-79
2023/07/08 07:07:53;;;;;;;9.70;6.25;;;;;;;21.94;57.75;101464.28;5030646;28;20107;-79
2023/07/08 07:10:19;;;;;;;11.48;6.13;;;;;;;22.11;56.30;101466.78;5030683;28;20029;-79
2023/07/08 07:12:47;;;;;;;9.13;6.68;;;;;;;22.35;56.19;101462.31;5030423;28;20167;-79
2023/07/08 07:15:12;;;;;;;8.00;5.47;;;;;;;22.61;54.85;101462.00;5022516;28;20060;-79
2023/07/08 07:17:37;;;;;;;10.63;6.40;;;;;;;22.89;54.55;101452.47;5031449;28;20056;-81
2023/07/08 07:20:03;;;;;;;8.57;5.82;;;;;;;23.24;54.56;101458.22;5030577;28;20026;-79
2023/07/08 07:22:29;;;;;;;12.48;6.05;;;;;;;23.51;53.23;101452.25;5031335;28;20518;-79
2023/07/08 07:24:55;;;;;;;11.98;6.10;;;;;;;23.74;51.25;101441.47;5030883;28;20021;-79
2023/07/08 07:27:20;;;;;;;7.63;5.90;;;;;;;24.04;50.47;101445.00;5029386;28;20492;-79
2023/07/08 07:29:48;;;;;;;11.05;6.32;;;;;;;24.20;50.73;101449.31;5029348;28;20025;-79
2023/07/08 07:32:15;;;;;;;10.98;6.50;;;;;;;24.47;49.83;101448.66;5024395;28;20029;-80
2023/07/08 07:34:41;;;;;;;13.20;5.95;;;;;;;24.76;49.42;101449.56;5029816;28;20029;-80
2023/07/08 07:37:11;;;;;;;14.07;5.50;;;;;;;25.09;48.27;101450.75;5047959;28;20043;-80
2023/07/08 07:39:36;;;;;;;9.35;5.90;;;;;;;25.30;47.46;101448.03;5044353;28;20385;-80
2023/07/08 07:42:02;;;;;;;8.90;5.72;;;;;;;25.61;47.28;101447.59;5030680;28;20033;-80
2023/07/08 07:44:27;;;;;;;9.90;5.70;;;;;;;25.92;46.94;101447.22;5030559;28;20884;-80
2023/07/08 07:46:54;;;;;;;7.93;5.70;;;;;;;26.20;45.97;101444.44;5029727;28;20032;-79
2023/07/08 07:49:20;;;;;;;11.57;6.18;;;;;;;26.47;44.93;101447.28;5023659;28;20049;-79
2023/07/08 07:51:45;;;;;;;7.25;5.63;;;;;;;26.68;44.25;101448.97;5029362;28;20124;-79
2023/07/08 07:54:11;;;;;;;9.23;5.97;;;;;;;27.00;42.87;101450.09;5029242;28;20031;-80
2023/07/08 07:56:36;;;;;;;6.45;5.57;;;;;;;27.21;43.26;101441.75;5029867;28;20025;-79
2023/07/08 07:59:03;;;;;;;9.02;5.85;;;;;;;27.39;41.66;101441.97;5036807;28;20029;-76
2023/07/08 08:01:28;;;;;;;11.70;6.55;;;;;;;27.64;41.51;101430.53;5027503;28;20029;-79
2023/07/08 08:03:53;;;;;;;13.35;6.13;;;;;;;27.64;40.92;101433.25;5030331;28;20086;-78
2023/07/08 08:06:19;;;;;;;10.07;5.80;;;;;;;27.91;41.10;101432.13;5021797;28;20054;-79
2023/07/08 08:08:45;;;;;;;7.43;5.85;;;;;;;28.22;39.95;101430.53;5015779;28;20063;-79
2023/07/08 08:11:11;;;;;;;8.00;5.55;;;;;;;28.51;39.83;101432.72;5021302;28;20029;-79
2023/07/08 08:13:36;;;;;;;9.07;6.10;;;;;;;28.70;38.58;101436.31;5030116;28;20017;-79
2023/07/08 08:16:02;;;;;;;9.43;6.03;;;;;;;28.89;38.34;101442.72;5029249;28;20080;-79
2023/07/08 08:18:28;;;;;;;8.88;6.00;;;;;;;29.07;38.17;101448.19;5029673;28;20411;-79
2023/07/08 08:20:53;;;;;;;12.52;5.78;;;;;;;29.32;38.62;101446.31;5029913;28;20025;-79
2023/07/08 08:23:18;;;;;;;9.23;6.47;;;;;;;29.48;37.48;101453.06;5029624;28;20416;-79
2023/07/08 08:25:44;;;;;;;9.43;6.00;;;;;;;29.76;37.55;101444.44;5029029;28;20139;-79
2023/07/08 08:28:09;;;;;;;9.40;6.03;;;;;;;29.63;36.85;101450.00;5028280;28;20056;-79
2023/07/08 08:30:35;;;;;;;11.32;6.00;;;;;;;29.84;37.00;101459.56;5028903;28;20104;-78
2023/07/08 08:33:00;;;;;;;9.98;5.90;;;;;;;30.01;36.26;101454.34;5029338;28;20124;-78
2023/07/08 08:35:26;;;;;;;13.57;6.35;;;;;;;30.03;36.61;101455.03;5029603;28;20026;-78
2023/07/08 08:37:53;;;;;;;10.75;6.30;;;;;;;30.48;35.42;101461.72;5029652;28;20021;-78
2023/07/08 08:40:19;;;;;;;8.75;6.32;;;;;;;30.64;34.58;101459.44;5029395;28;20465;-78
2023/07/08 08:42:53;;;;;;;9.18;6.60;;;;;;;30.81;34.20;101463.16;5028954;28;20025;-78
2023/07/08 08:45:20;;;;;;;11.90;6.60;;;;;;;31.10;33.67;101462.28;5028411;28;20511;-78
2023/07/08 08:47:51;;;;;;;10.27;6.35;;;;;;;31.32;33.76;101465.28;5024576;28;20083;-77
2023/07/08 08:50:25;;;;;;;9.55;6.40;;;;;;;31.26;33.37;101459.97;5024731;28;20112;-77
2023/07/08 08:52:54;;;;;;;10.48;6.95;;;;;;;31.29;33.83;101465.78;5027588;28;20493;-78
2023/07/08 08:55:20;;;;;;;11.30;6.43;;;;;;;31.81;33.82;101459.63;5033179;28;20032;-78
2023/07/08 08:57:59;;;;;;;8.77;6.70;;;;;;;32.10;32.86;101464.06;5030023;28;20034;-78
2023/07/08 09:00:56;;;;;;;8.07;6.35;;;;;;;32.75;33.77;101466.41;5028435;28;20401;-78
2023/07/08 09:03:36;;;;;;;12.70;6.82;;;;;;;32.69;31.79;101468.22;5000001;28;20115;-78
2023/07/08 09:06:10;;;;;;;11.50;7.35;;;;;;;32.78;30.57;101470.53;5026014;28;20103;-78
2023/07/08 09:08:36;;;;;;;9.73;7.03;;;;;;;32.87;29.76;101469.94;5028299;28;20025;-78
2023/07/08 09:11:42;;;;;;;10.98;6.75;;;;;;;33.09;32.05;101466.47;5027454;28;20063;-77
2023/07/08 09:14:22;;;;;;;8.55;7.00;;;;;;;33.29;30.84;101456.72;5028274;28;20540;-78
2023/07/08 09:17:09;;;;;;;9.82;6.55;;;;;;;33.47;29.40;101463.00;5028567;28;20025;-77
2023/07/08 09:20:20;;;;;;;10.23;6.80;;;;;;;33.85;30.69;101448.53;5028557;28;20559;-78
2023/07/08 09:22:56;;;;;;;9.88;6.93;;;;;;;33.78;28.85;101442.41;5026179;28;20033;-77
2023/07/08 09:25:27;;;;;;;9.18;6.70;;;;;;;33.66;28.92;101449.91;5027295;28;20033;-78
2023/07/08 09:27:53;;;;;;;10.35;6.60;;;;;;;34.06;28.52;101449.63;5027920;28;20026;-79
2023/07/08 09:30:21;;;;;;;12.75;7.70;;;;;;;33.85;28.02;101454.00;5029416;28;20036;-78
2023/07/08 09:32:48;;;;;;;8.15;6.93;;;;;;;33.57;28.26;101446.75;5027868;28;20072;-78
2023/07/08 09:35:25;;;;;;;7.65;6.40;;;;;;;33.67;28.85;101446.09;5028904;28;20029;-78
2023/07/08 09:37:52;;;;;;;10.38;7.18;;;;;;;33.71;28.86;101439.88;5029044;28;20526;-79
2023/07/08 09:40:21;;;;;;;19.45;7.38;;;;;;;34.05;28.73;101437.06;5049537;28;20107;-79
2023/07/08 09:42:58;;;;;;;10.75;6.75;;;;;;;34.27;29.39;101429.66;5017118;28;20052;-78
2023/07/08 09:45:24;;;;;;;9.55;6.88;;;;;;;34.09;28.51;101425.38;5024509;28;20528;-79
2023/07/08 09:47:55;;;;;;;13.75;6.80;;;;;;;33.93;28.74;101428.97;5010348;28;20041;-78
2023/07/08 09:50:25;;;;;;;11.02;7.18;;;;;;;33.81;27.70;101429.09;5023417;28;20757;-79
2023/07/08 09:52:52;;;;;;;8.82;6.68;;;;;;;33.76;28.74;101428.19;5049283;28;20049;-78
2023/07/08 09:55:18;;;;;;;12.23;7.45;;;;;;;33.91;28.22;101434.69;5028676;28;20174;-79
2023/07/08 09:57:46;;;;;;;12.13;7.30;;;;;;;33.92;30.46;101432.78;5030278;28;20116;-78
2023/07/08 10:00:16;;;;;;;9.02;6.75;;;;;;;34.03;29.99;101423.66;5031167;28;20037;-79
2023/07/08 10:02:46;;;;;;;10.25;7.00;;;;;;;34.13;28.74;101423.78;5032296;28;20525;-78
2023/07/08 10:05:36;;;;;;;9.27;6.70;;;;;;;34.05;30.32;101426.97;5031631;28;20029;-79
2023/07/08 10:08:07;;;;;;;9.00;6.68;;;;;;;33.62;27.84;101423.13;5031270;28;20033;-79
2023/07/08 10:10:38;;;;;;;10.57;6.75;;;;;;;33.97;28.33;101424.66;5031852;28;20489;-78
2023/07/08 10:13:35;;;;;;;8.63;6.95;;;;;;;34.07;28.34;101418.50;5031973;28;20108;-79
2023/07/08 10:16:15;;;;;;;9.13;6.28;;;;;;;34.18;28.87;101425.72;5007584;28;20544;-79
2023/07/08 10:18:41;;;;;;;10.50;6.72;;;;;;;34.19;27.14;101427.38;5032231;28;20485;-78
2023/07/08 10:21:31;;;;;;;8.98;6.60;;;;;;;34.37;28.10;101431.69;5031207;28;20025;-79
2023/07/08 10:24:30;;;;;;;8.20;6.45;;;;;;;34.41;28.59;101428.19;5012211;28;20033;-79
2023/07/08 10:27:40;;;;;;;14.25;6.57;;;;;;;34.62;27.51;101421.00;5028880;28;20032;-78
2023/07/08 10:30:06;;;;;;;7.80;6.50;;;;;;;34.91;27.73;101423.47;5028336;28;20041;-79
2023/07/08 10:32:46;;;;;;;9.90;6.20;;;;;;;34.92;29.27;101425.13;5031217;28;20033;-79
2023/07/08 10:35:27;;;;;;;10.50;7.32;;;;;;;34.96;27.44;101429.00;5030740;28;20106;-79
2023/07/08 10:38:17;;;;;;;10.25;6.45;;;;;;;35.05;28.28;101430.16;5031826;28;20474;-80
2023/07/08 10:41:01;;;;;;;8.10;6.80;;;;;;;34.98;27.66;101437.75;5027214;28;20044;-79
2023/07/08 10:43:55;;;;;;;7.88;6.53;;;;;;;34.96;28.26;101437.19;5011590;28;20018;-79
2023/07/08 10:46:32;;;;;;;9.30;7.03;;;;;;;34.70;27.57;101445.13;5031129;28;20053;-79
2023/07/08 10:49:19;;;;;;;9.15;6.80;;;;;;;34.61;27.10;101432.22;5031913;28;20113;-79
2023/07/08 10:51:53;;;;;;;8.02;6.63;;;;;;;34.52;26.92;101438.16;5031676;28;20029;-80
2023/07/08 10:54:38;;;;;;;11.07;7.32;;;;;;;34.42;27.12;101443.50;5028457;28;20179;-80
2023/07/08 10:57:31;;;;;;;12.50;7.20;;;;;;;34.48;27.59;101442.50;5035206;28;20028;-79
2023/07/08 11:00:02;;;;;;;9.35;6.30;;;;;;;34.78;27.21;101447.41;5024516;28;20021;-80
2023/07/08 11:02:45;;;;;;;8.52;7.03;;;;;;;34.76;27.21;101438.63;5030464;28;20879;-80
2023/07/08 11:05:10;;;;;;;8.65;6.65;;;;;;;34.71;26.37;101432.28;5032074;28;20413;-80
2023/07/08 11:07:46;;;;;;;7.50;6.30;;;;;;;34.69;26.98;101432.56;5038697;28;20032;-80
2023/07/08 11:10:18;;;;;;;9.15;6.82;;;;;;;34.82;26.87;101432.16;5030929;28;20033;-80
2023/07/08 11:12:51;;;;;;;8.02;6.53;;;;;;;34.81;26.47;101440.59;5030002;28;20052;-80
2023/07/08 11:15:50;;;;;;;10.77;6.63;;;;;;;34.82;27.07;101429.41;5030536;28;20489;-80
2023/07/08 11:18:24;;;;;;;7.90;6.65;;;;;;;34.99;26.94;101433.94;5008929;28;20071;-80
2023/07/08 11:21:01;;;;;;;8.13;6.57;;;;;;;35.24;25.13;101439.59;5009817;28;20033;-80
2023/07/08 11:23:36;;;;;;;8.10;6.53;;;;;;;35.37;24.21;101428.22;5035835;28;20434;-80
2023/07/08 11:26:10;;;;;;;8.35;6.72;;;;;;;35.50;23.61;101424.19;5039855;28;20029;-80
2023/07/08 11:28:36;;;;;;;11.70;7.22;;;;;;;35.49;22.79;101434.31;5034243;28;20374;-80
2023/07/08 11:31:04;;;;;;;8.15;6.63;;;;;;;35.49;22.35;101428.00;5039281;28;20036;-80
2023/07/08 11:33:32;;;;;;;8.73;6.82;;;;;;;35.54;23.25;101432.69;5038461;28;20029;-79